sensor_id;sensor_type;location;lat;lon;timestamp;pressure;altitude;pressure_sealevel;temperature;humidity
76074;BME280;64776;42.636;24.358;2023-11-22T00:02:53;89558.84;;;4.11;88.30
76074;BME280;64776;42.636;24.358;2023-11-22T00:05:55;89567.34;;;4.15;87.66
76074;BME280;64776;42.636;24.358;2023-11-22T00:08:55;89573.91;;;4.20;88.04
76074;BME280;64776;42.636;24.358;2023-11-22T00:11:56;89575.41;;;4.11;87.93
76074;BME280;64776;42.636;24.358;2023-11-22T00:14:57;89571.00;;;4.18;87.10
76074;BME280;64776;42.636;24.358;2023-11-22T00:17:58;89562.50;;;4.13;88.38
76074;BME280;64776;42.636;24.358;2023-11-22T00:21:00;89560.75;;;4.10;88.15
76074;BME280;64776;42.636;24.358;2023-11-22T00:24:01;89561.19;;;4.18;86.89
76074;BME280;64776;42.636;24.358;2023-11-22T00:27:01;89566.13;;;4.25;86.81
76074;BME280;64776;42.636;24.358;2023-11-22T00:30:03;89570.19;;;4.35;87.29
76074;BME280;64776;42.636;24.358;2023-11-22T00:33:03;89569.75;;;4.37;86.59
76074;BME280;64776;42.636;24.358;2023-11-22T00:36:06;89567.25;;;4.33;87.20
76074;BME280;64776;42.636;24.358;2023-11-22T00:39:07;89563.81;;;4.18;87.24
76074;BME280;64776;42.636;24.358;2023-11-22T00:42:08;89561.47;;;4.11;87.16
76074;BME280;64776;42.636;24.358;2023-11-22T00:45:09;89564.69;;;4.15;87.04
76074;BME280;64776;42.636;24.358;2023-11-22T00:48:11;89564.81;;;4.21;87.41
76074;BME280;64776;42.636;24.358;2023-11-22T00:51:13;89561.75;;;4.22;87.94
76074;BME280;64776;42.636;24.358;2023-11-22T00:54:13;89562.47;;;4.23;86.95
76074;BME280;64776;42.636;24.358;2023-11-22T00:57:14;89552.34;;;4.21;87.52
76074;BME280;64776;42.636;24.358;2023-11-22T01:00:16;89550.00;;;4.23;86.88
76074;BME280;64776;42.636;24.358;2023-11-22T01:03:16;89543.53;;;4.24;87.57
76074;BME280;64776;42.636;24.358;2023-11-22T01:06:19;89539.44;;;4.23;87.73
76074;BME280;64776;42.636;24.358;2023-11-22T01:09:19;89542.06;;;4.23;87.25
76074;BME280;64776;42.636;24.358;2023-11-22T01:12:20;89551.19;;;4.22;86.90
76074;BME280;64776;42.636;24.358;2023-11-22T01:15:21;89552.97;;;4.16;87.78
76074;BME280;64776;42.636;24.358;2023-11-22T01:18:22;89557.22;;;4.13;86.81
76074;BME280;64776;42.636;24.358;2023-11-22T01:21:24;89550.03;;;4.14;87.55
76074;BME280;64776;42.636;24.358;2023-11-22T01:24:24;89553.56;;;4.02;87.94
76074;BME280;64776;42.636;24.358;2023-11-22T01:27:25;89543.34;;;3.95;88.51
76074;BME280;64776;42.636;24.358;2023-11-22T01:30:26;89536.94;;;3.87;89.15
76074;BME280;64776;42.636;24.358;2023-11-22T01:33:26;89524.25;;;4.00;88.95
76074;BME280;64776;42.636;24.358;2023-11-22T01:36:30;89527.81;;;3.97;89.74
76074;BME280;64776;42.636;24.358;2023-11-22T01:39:31;89520.63;;;3.97;88.74
76074;BME280;64776;42.636;24.358;2023-11-22T01:42:32;89528.22;;;4.04;88.19
76074;BME280;64776;42.636;24.358;2023-11-22T01:45:32;89525.44;;;4.08;89.14
76074;BME280;64776;42.636;24.358;2023-11-22T01:48:33;89515.16;;;4.10;87.99
76074;BME280;64776;42.636;24.358;2023-11-22T01:51:36;89519.25;;;4.11;87.90
76074;BME280;64776;42.636;24.358;2023-11-22T01:54:38;89517.19;;;4.06;88.21
76074;BME280;64776;42.636;24.358;2023-11-22T01:57:39;89518.84;;;4.03;88.43
76074;BME280;64776;42.636;24.358;2023-11-22T02:00:43;89510.22;;;3.94;88.61
76074;BME280;64776;42.636;24.358;2023-11-22T02:03:46;89508.94;;;3.89;89.18
76074;BME280;64776;42.636;24.358;2023-11-22T02:06:48;89510.22;;;3.94;89.81
76074;BME280;64776;42.636;24.358;2023-11-22T02:09:49;89499.91;;;4.05;88.57
76074;BME280;64776;42.636;24.358;2023-11-22T02:12:50;89501.53;;;4.02;89.56
76074;BME280;64776;42.636;24.358;2023-11-22T02:15:50;89496.41;;;4.08;88.99
76074;BME280;64776;42.636;24.358;2023-11-22T02:18:51;89500.03;;;4.10;88.40
76074;BME280;64776;42.636;24.358;2023-11-22T02:21:53;89498.13;;;4.11;89.14
76074;BME280;64776;42.636;24.358;2023-11-22T02:24:55;89489.94;;;4.09;88.53
76074;BME280;64776;42.636;24.358;2023-11-22T02:27:56;89483.81;;;3.94;89.24
76074;BME280;64776;42.636;24.358;2023-11-22T02:30:57;89487.09;;;3.89;90.23
76074;BME280;64776;42.636;24.358;2023-11-22T02:33:57;89489.66;;;3.98;90.25
76074;BME280;64776;42.636;24.358;2023-11-22T02:36:58;89485.25;;;4.04;90.17
76074;BME280;64776;42.636;24.358;2023-11-22T02:40:05;89483.75;;;4.12;88.77
76074;BME280;64776;42.636;24.358;2023-11-22T02:43:07;89487.09;;;4.22;89.17
76074;BME280;64776;42.636;24.358;2023-11-22T02:46:08;89470.06;;;4.23;88.61
76074;BME280;64776;42.636;24.358;2023-11-22T02:49:09;89469.06;;;4.20;87.80
76074;BME280;64776;42.636;24.358;2023-11-22T02:52:09;89467.66;;;4.10;88.75
76074;BME280;64776;42.636;24.358;2023-11-22T02:55:12;89471.41;;;4.18;87.97
76074;BME280;64776;42.636;24.358;2023-11-22T02:58:12;89471.97;;;4.22;87.85
76074;BME280;64776;42.636;24.358;2023-11-22T03:01:14;89482.66;;;3.95;88.53
76074;BME280;64776;42.636;24.358;2023-11-22T03:04:14;89475.56;;;4.10;89.20
76074;BME280;64776;42.636;24.358;2023-11-22T03:07:15;89486.13;;;4.10;88.44
76074;BME280;64776;42.636;24.358;2023-11-22T03:10:17;89476.44;;;4.07;88.86
76074;BME280;64776;42.636;24.358;2023-11-22T03:13:18;89491.41;;;4.10;89.21
76074;BME280;64776;42.636;24.358;2023-11-22T03:16:19;89487.69;;;4.17;88.88
76074;BME280;64776;42.636;24.358;2023-11-22T03:19:20;89487.81;;;4.22;89.02
76074;BME280;64776;42.636;24.358;2023-11-22T03:22:20;89481.53;;;4.20;88.54
76074;BME280;64776;42.636;24.358;2023-11-22T03:25:23;89485.88;;;4.23;88.31
76074;BME280;64776;42.636;24.358;2023-11-22T03:28:23;89487.47;;;4.05;88.48
76074;BME280;64776;42.636;24.358;2023-11-22T03:31:24;89486.69;;;4.14;88.93
76074;BME280;64776;42.636;24.358;2023-11-22T03:34:25;89484.91;;;4.20;88.37
76074;BME280;64776;42.636;24.358;2023-11-22T03:37:26;89484.72;;;4.24;88.59
76074;BME280;64776;42.636;24.358;2023-11-22T03:40:28;89487.09;;;4.22;88.56
76074;BME280;64776;42.636;24.358;2023-11-22T03:43:28;89478.44;;;4.21;89.23
76074;BME280;64776;42.636;24.358;2023-11-22T03:46:29;89485.31;;;4.19;88.57
76074;BME280;64776;42.636;24.358;2023-11-22T03:49:30;89489.03;;;4.12;88.98
76074;BME280;64776;42.636;24.358;2023-11-22T03:52:31;89495.22;;;4.00;90.10
76074;BME280;64776;42.636;24.358;2023-11-22T03:55:33;89491.44;;;3.92;91.31
76074;BME280;64776;42.636;24.358;2023-11-22T03:58:33;89500.47;;;4.09;90.31
76074;BME280;64776;42.636;24.358;2023-11-22T04:01:34;89502.06;;;4.16;90.74
76074;BME280;64776;42.636;24.358;2023-11-22T04:04:36;89498.97;;;4.17;90.34
76074;BME280;64776;42.636;24.358;2023-11-22T04:07:37;89507.84;;;4.05;90.49
76074;BME280;64776;42.636;24.358;2023-11-22T04:10:39;89492.47;;;3.94;90.64
76074;BME280;64776;42.636;24.358;2023-11-22T04:13:39;89498.16;;;4.02;91.46
76074;BME280;64776;42.636;24.358;2023-11-22T04:16:40;89502.09;;;4.06;91.25
76074;BME280;64776;42.636;24.358;2023-11-22T04:19:41;89511.00;;;4.18;90.87
76074;BME280;64776;42.636;24.358;2023-11-22T04:22:43;89510.38;;;4.23;90.33
76074;BME280;64776;42.636;24.358;2023-11-22T04:25:46;89519.72;;;4.33;89.97
76074;BME280;64776;42.636;24.358;2023-11-22T04:28:46;89514.63;;;4.30;89.28
76074;BME280;64776;42.636;24.358;2023-11-22T04:31:47;89518.84;;;4.36;90.37
76074;BME280;64776;42.636;24.358;2023-11-22T04:34:48;89520.25;;;4.13;91.43
76074;BME280;64776;42.636;24.358;2023-11-22T04:37:50;89529.78;;;4.20;91.45
76074;BME280;64776;42.636;24.358;2023-11-22T04:40:52;89531.84;;;4.16;91.65
76074;BME280;64776;42.636;24.358;2023-11-22T04:43:53;89536.19;;;4.28;92.28
76074;BME280;64776;42.636;24.358;2023-11-22T04:46:53;89536.13;;;4.37;91.55
76074;BME280;64776;42.636;24.358;2023-11-22T04:49:54;89533.63;;;4.43;90.77
76074;BME280;64776;42.636;24.358;2023-11-22T04:52:55;89532.28;;;4.47;90.63
76074;BME280;64776;42.636;24.358;2023-11-22T04:55:57;89549.69;;;4.30;91.59
76074;BME280;64776;42.636;24.358;2023-11-22T04:58:58;89558.13;;;4.43;90.74
76074;BME280;64776;42.636;24.358;2023-11-22T05:01:58;89557.53;;;4.48;90.53
76074;BME280;64776;42.636;24.358;2023-11-22T05:04:59;89560.63;;;4.47;91.23
76074;BME280;64776;42.636;24.358;2023-11-22T05:08:00;89567.88;;;4.28;91.39
76074;BME280;64776;42.636;24.358;2023-11-22T05:11:02;89576.16;;;4.03;92.98
76074;BME280;64776;42.636;24.358;2023-11-22T05:14:03;89578.88;;;4.27;93.43
76074;BME280;64776;42.636;24.358;2023-11-22T05:17:04;89577.16;;;4.47;91.75
76074;BME280;64776;42.636;24.358;2023-11-22T05:20:06;89584.09;;;4.45;91.35
76074;BME280;64776;42.636;24.358;2023-11-22T05:23:07;89584.81;;;4.45;92.44
76074;BME280;64776;42.636;24.358;2023-11-22T05:26:09;89598.03;;;4.45;91.88
76074;BME280;64776;42.636;24.358;2023-11-22T05:29:10;89591.81;;;4.57;91.98
76074;BME280;64776;42.636;24.358;2023-11-22T05:32:11;89596.78;;;4.64;90.93
76074;BME280;64776;42.636;24.358;2023-11-22T05:35:12;89597.34;;;4.68;90.44
76074;BME280;64776;42.636;24.358;2023-11-22T05:38:12;89604.09;;;4.69;91.05
76074;BME280;64776;42.636;24.358;2023-11-22T05:41:15;89614.66;;;4.69;90.78
76074;BME280;64776;42.636;24.358;2023-11-22T05:44:15;89610.84;;;4.70;91.22
76074;BME280;64776;42.636;24.358;2023-11-22T05:47:16;89614.88;;;4.80;90.93
76074;BME280;64776;42.636;24.358;2023-11-22T05:50:17;89604.88;;;4.84;90.45
76074;BME280;64776;42.636;24.358;2023-11-22T05:53:17;89611.09;;;4.81;91.59
76074;BME280;64776;42.636;24.358;2023-11-22T05:56:20;89619.00;;;4.81;91.37
76074;BME280;64776;42.636;24.358;2023-11-22T05:59:20;89620.19;;;4.80;91.93
76074;BME280;64776;42.636;24.358;2023-11-22T06:02:21;89623.09;;;4.82;93.07
76074;BME280;64776;42.636;24.358;2023-11-22T06:05:22;89638.19;;;4.91;92.15
76074;BME280;64776;42.636;24.358;2023-11-22T06:08:23;89643.03;;;4.92;92.36
76074;BME280;64776;42.636;24.358;2023-11-22T06:11:25;89651.97;;;4.95;93.44
76074;BME280;64776;42.636;24.358;2023-11-22T06:14:26;89654.91;;;4.97;93.31
76074;BME280;64776;42.636;24.358;2023-11-22T06:17:26;89654.78;;;4.91;93.99
76074;BME280;64776;42.636;24.358;2023-11-22T06:20:27;89652.97;;;4.74;94.32
76074;BME280;64776;42.636;24.358;2023-11-22T06:23:28;89661.28;;;4.81;94.39
76074;BME280;64776;42.636;24.358;2023-11-22T06:26:30;89662.63;;;4.77;95.06
76074;BME280;64776;42.636;24.358;2023-11-22T06:29:31;89668.03;;;4.82;96.35
76074;BME280;64776;42.636;24.358;2023-11-22T06:32:31;89671.13;;;4.81;96.10
76074;BME280;64776;42.636;24.358;2023-11-22T06:35:32;89670.72;;;5.06;96.02
76074;BME280;64776;42.636;24.358;2023-11-22T06:38:33;89669.78;;;5.18;94.27
76074;BME280;64776;42.636;24.358;2023-11-22T06:41:35;89674.28;;;5.27;94.49
76074;BME280;64776;42.636;24.358;2023-11-22T06:44:36;89671.47;;;5.30;94.33
76074;BME280;64776;42.636;24.358;2023-11-22T06:47:37;89666.75;;;5.34;94.22
76074;BME280;64776;42.636;24.358;2023-11-22T06:50:37;89663.31;;;5.43;95.05
76074;BME280;64776;42.636;24.358;2023-11-22T06:53:38;89656.69;;;5.47;94.59
76074;BME280;64776;42.636;24.358;2023-11-22T06:56:40;89672.47;;;5.56;94.08
76074;BME280;64776;42.636;24.358;2023-11-22T06:59:41;89663.53;;;5.54;94.97
76074;BME280;64776;42.636;24.358;2023-11-22T07:02:42;89668.19;;;5.59;95.18
76074;BME280;64776;42.636;24.358;2023-11-22T07:05:43;89668.44;;;5.70;94.93
76074;BME280;64776;42.636;24.358;2023-11-22T07:08:44;89673.38;;;5.77;94.37
76074;BME280;64776;42.636;24.358;2023-11-22T07:11:46;89670.06;;;5.91;94.85
76074;BME280;64776;42.636;24.358;2023-11-22T07:14:47;89672.44;;;5.89;94.19
76074;BME280;64776;42.636;24.358;2023-11-22T07:17:47;89670.97;;;5.88;94.55
76074;BME280;64776;42.636;24.358;2023-11-22T07:20:48;89675.56;;;5.78;95.46
76074;BME280;64776;42.636;24.358;2023-11-22T07:23:49;89672.16;;;5.87;95.99
76074;BME280;64776;42.636;24.358;2023-11-22T07:26:51;89673.97;;;5.96;96.57
76074;BME280;64776;42.636;24.358;2023-11-22T07:29:52;89681.78;;;5.99;96.72
76074;BME280;64776;42.636;24.358;2023-11-22T07:32:53;89689.00;;;6.13;96.01
76074;BME280;64776;42.636;24.358;2023-11-22T07:35:53;89687.28;;;6.25;95.57
76074;BME280;64776;42.636;24.358;2023-11-22T07:38:54;89693.50;;;6.36;95.35
76074;BME280;64776;42.636;24.358;2023-11-22T07:41:56;89694.63;;;6.44;95.36
76074;BME280;64776;42.636;24.358;2023-11-22T07:44:57;89700.75;;;6.50;94.99
76074;BME280;64776;42.636;24.358;2023-11-22T07:47:58;89696.25;;;6.56;94.03
76074;BME280;64776;42.636;24.358;2023-11-22T07:50:58;89693.41;;;6.60;94.03
76074;BME280;64776;42.636;24.358;2023-11-22T07:53:59;89695.72;;;6.52;94.42
76074;BME280;64776;42.636;24.358;2023-11-22T07:57:01;89697.81;;;6.48;95.46
76074;BME280;64776;42.636;24.358;2023-11-22T08:00:03;89691.78;;;6.48;95.78
76074;BME280;64776;42.636;24.358;2023-11-22T08:03:03;89693.25;;;6.49;96.72
76074;BME280;64776;42.636;24.358;2023-11-22T08:06:04;89694.97;;;6.67;97.02
76074;BME280;64776;42.636;24.358;2023-11-22T08:09:06;89702.28;;;6.86;96.59
76074;BME280;64776;42.636;24.358;2023-11-22T08:12:08;89699.88;;;7.03;96.68
76074;BME280;64776;42.636;24.358;2023-11-22T08:15:09;89696.22;;;7.15;95.83
76074;BME280;64776;42.636;24.358;2023-11-22T08:18:10;89701.03;;;7.31;96.24
76074;BME280;64776;42.636;24.358;2023-11-22T08:21:11;89702.38;;;7.41;95.59
76074;BME280;64776;42.636;24.358;2023-11-22T08:24:11;89704.38;;;7.46;95.16
76074;BME280;64776;42.636;24.358;2023-11-22T08:27:13;89701.59;;;7.55;95.47
76074;BME280;64776;42.636;24.358;2023-11-22T08:30:14;89714.22;;;7.60;95.11
76074;BME280;64776;42.636;24.358;2023-11-22T08:33:15;89709.72;;;7.66;94.65
76074;BME280;64776;42.636;24.358;2023-11-22T08:36:16;89705.06;;;7.61;95.58
76074;BME280;64776;42.636;24.358;2023-11-22T08:39:17;89717.28;;;7.73;95.03
76074;BME280;64776;42.636;24.358;2023-11-22T08:42:19;89710.47;;;7.87;94.66
76074;BME280;64776;42.636;24.358;2023-11-22T08:45:20;89705.34;;;7.83;95.87
76074;BME280;64776;42.636;24.358;2023-11-22T08:48:20;89706.00;;;7.78;96.46
76074;BME280;64776;42.636;24.358;2023-11-22T08:51:21;89705.47;;;7.74;96.61
76074;BME280;64776;42.636;24.358;2023-11-22T08:54:22;89705.75;;;7.76;97.17
76074;BME280;64776;42.636;24.358;2023-11-22T08:57:24;89712.38;;;7.86;96.63
76074;BME280;64776;42.636;24.358;2023-11-22T09:00:25;89708.00;;;8.03;96.31
76074;BME280;64776;42.636;24.358;2023-11-22T09:03:26;89709.72;;;8.27;96.05
76074;BME280;64776;42.636;24.358;2023-11-22T09:06:26;89705.34;;;8.44;95.13
76074;BME280;64776;42.636;24.358;2023-11-22T09:09:27;89711.06;;;8.62;94.04
76074;BME280;64776;42.636;24.358;2023-11-22T09:12:29;89712.41;;;8.78;93.40
76074;BME280;64776;42.636;24.358;2023-11-22T09:15:30;89716.16;;;8.86;93.64
76074;BME280;64776;42.636;24.358;2023-11-22T09:18:31;89716.91;;;8.92;93.45
76074;BME280;64776;42.636;24.358;2023-11-22T09:21:32;89710.97;;;9.02;92.41
76074;BME280;64776;42.636;24.358;2023-11-22T09:24:33;89704.94;;;9.08;91.80
76074;BME280;64776;42.636;24.358;2023-11-22T09:27:35;89712.28;;;9.18;92.40
76074;BME280;64776;42.636;24.358;2023-11-22T09:30:36;89712.84;;;9.28;92.42
76074;BME280;64776;42.636;24.358;2023-11-22T09:33:36;89718.16;;;9.28;91.50
76074;BME280;64776;42.636;24.358;2023-11-22T09:36:37;89713.41;;;9.06;92.87
76074;BME280;64776;42.636;24.358;2023-11-22T09:39:38;89725.34;;;8.90;93.44
76074;BME280;64776;42.636;24.358;2023-11-22T09:42:40;89727.34;;;8.70;95.76
76074;BME280;64776;42.636;24.358;2023-11-22T09:45:41;89721.09;;;8.73;95.54
76074;BME280;64776;42.636;24.358;2023-11-22T09:48:42;89723.53;;;8.76;96.07
76074;BME280;64776;42.636;24.358;2023-11-22T09:51:43;89725.69;;;8.98;95.30
76074;BME280;64776;42.636;24.358;2023-11-22T09:54:44;89719.25;;;9.10;94.82
76074;BME280;64776;42.636;24.358;2023-11-22T09:57:47;89724.91;;;9.23;94.53
76074;BME280;64776;42.636;24.358;2023-11-22T10:00:49;89722.59;;;9.36;93.71
76074;BME280;64776;42.636;24.358;2023-11-22T10:03:50;89729.66;;;9.45;93.13
76074;BME280;64776;42.636;24.358;2023-11-22T10:06:51;89724.16;;;9.54;94.12
76074;BME280;64776;42.636;24.358;2023-11-22T10:09:52;89731.22;;;9.62;94.88
76074;BME280;64776;42.636;24.358;2023-11-22T10:12:54;89733.78;;;9.82;93.72
76074;BME280;64776;42.636;24.358;2023-11-22T10:15:55;89731.81;;;9.77;93.47
76074;BME280;64776;42.636;24.358;2023-11-22T10:18:57;89722.41;;;9.82;92.83
76074;BME280;64776;42.636;24.358;2023-11-22T10:22:05;89717.34;;;9.90;91.85
76074;BME280;64776;42.636;24.358;2023-11-22T10:25:09;89722.50;;;9.99;91.61
76074;BME280;64776;42.636;24.358;2023-11-22T10:28:12;89717.91;;;10.05;92.42
76074;BME280;64776;42.636;24.358;2023-11-22T10:31:13;89708.78;;;10.17;91.81
76074;BME280;64776;42.636;24.358;2023-11-22T10:34:14;89706.13;;;10.17;90.60
76074;BME280;64776;42.636;24.358;2023-11-22T10:37:15;89698.41;;;10.30;90.40
76074;BME280;64776;42.636;24.358;2023-11-22T10:40:16;89693.84;;;10.36;90.22
76074;BME280;64776;42.636;24.358;2023-11-22T10:43:19;89688.50;;;10.47;89.20
76074;BME280;64776;42.636;24.358;2023-11-22T10:46:26;89700.16;;;10.44;87.83
76074;BME280;64776;42.636;24.358;2023-11-22T10:49:28;89694.78;;;10.33;87.30
76074;BME280;64776;42.636;24.358;2023-11-22T10:52:29;89698.66;;;10.32;87.40
76074;BME280;64776;42.636;24.358;2023-11-22T10:55:32;89702.34;;;10.51;87.00
76074;BME280;64776;42.636;24.358;2023-11-22T10:58:35;89704.09;;;10.65;86.07
76074;BME280;64776;42.636;24.358;2023-11-22T11:01:37;89709.44;;;10.71;86.08
76074;BME280;64776;42.636;24.358;2023-11-22T11:04:42;89709.47;;;10.87;86.16
76074;BME280;64776;42.636;24.358;2023-11-22T11:07:48;89711.41;;;10.81;83.76
76074;BME280;64776;42.636;24.358;2023-11-22T11:10:49;89713.59;;;10.83;84.47
76074;BME280;64776;42.636;24.358;2023-11-22T11:13:58;89707.25;;;10.69;85.78
76074;BME280;64776;42.636;24.358;2023-11-22T11:17:00;89696.38;;;10.89;84.15
76074;BME280;64776;42.636;24.358;2023-11-22T11:20:04;89693.97;;;11.02;83.19
76074;BME280;64776;42.636;24.358;2023-11-22T11:23:04;89701.00;;;11.11;82.99
76074;BME280;64776;42.636;24.358;2023-11-22T11:26:09;89692.53;;;11.12;82.06
76074;BME280;64776;42.636;24.358;2023-11-22T11:32:45;89715.09;;;11.44;80.13
76074;BME280;64776;42.636;24.358;2023-11-22T11:35:47;89710.22;;;11.71;80.39
76074;BME280;64776;42.636;24.358;2023-11-22T11:38:48;89705.38;;;11.64;77.90
76074;BME280;64776;42.636;24.358;2023-11-22T11:41:49;89703.19;;;11.57;78.57
76074;BME280;64776;42.636;24.358;2023-11-22T11:45:04;89719.22;;;11.57;79.98
76074;BME280;64776;42.636;24.358;2023-11-22T11:48:06;89708.03;;;11.64;79.32
76074;BME280;64776;42.636;24.358;2023-11-22T11:51:07;89711.19;;;11.79;77.29
76074;BME280;64776;42.636;24.358;2023-11-22T11:54:08;89707.53;;;11.93;76.76
76074;BME280;64776;42.636;24.358;2023-11-22T11:57:08;89711.91;;;11.90;77.92
76074;BME280;64776;42.636;24.358;2023-11-22T12:00:10;89716.53;;;11.84;77.68
76074;BME280;64776;42.636;24.358;2023-11-22T12:03:14;89718.00;;;11.91;77.16
76074;BME280;64776;42.636;24.358;2023-11-22T12:06:15;89712.63;;;11.96;76.77
76074;BME280;64776;42.636;24.358;2023-11-22T12:09:22;89712.63;;;11.85;78.00
76074;BME280;64776;42.636;24.358;2023-11-22T12:12:23;89717.03;;;11.77;77.34
76074;BME280;64776;42.636;24.358;2023-11-22T12:15:24;89732.59;;;11.73;77.42
76074;BME280;64776;42.636;24.358;2023-11-22T12:18:27;89730.88;;;11.87;76.54
76074;BME280;64776;42.636;24.358;2023-11-22T12:21:30;89724.06;;;11.86;75.67
76074;BME280;64776;42.636;24.358;2023-11-22T12:24:31;89738.41;;;11.88;78.01
76074;BME280;64776;42.636;24.358;2023-11-22T12:27:31;89730.38;;;11.94;77.14
76074;BME280;64776;42.636;24.358;2023-11-22T12:30:33;89738.91;;;11.87;77.03
76074;BME280;64776;42.636;24.358;2023-11-22T12:33:36;89729.66;;;11.88;76.65
76074;BME280;64776;42.636;24.358;2023-11-22T12:36:37;89722.63;;;11.85;77.00
76074;BME280;64776;42.636;24.358;2023-11-22T12:39:39;89711.44;;;11.81;75.53
76074;BME280;64776;42.636;24.358;2023-11-22T12:42:50;89724.28;;;11.93;76.37
76074;BME280;64776;42.636;24.358;2023-11-22T12:45:58;89729.41;;;11.86;78.47
76074;BME280;64776;42.636;24.358;2023-11-22T12:49:06;89744.50;;;11.67;77.89
76074;BME280;64776;42.636;24.358;2023-11-22T12:52:07;89736.72;;;11.74;78.12
76074;BME280;64776;42.636;24.358;2023-11-22T12:55:08;89737.19;;;11.84;77.40
76074;BME280;64776;42.636;24.358;2023-11-22T12:58:08;89733.06;;;11.83;77.68
76074;BME280;64776;42.636;24.358;2023-11-22T13:01:09;89748.84;;;11.64;79.54
76074;BME280;64776;42.636;24.358;2023-11-22T13:04:11;89758.81;;;11.75;78.31
76074;BME280;64776;42.636;24.358;2023-11-22T13:07:12;89769.25;;;11.73;79.04
76074;BME280;64776;42.636;24.358;2023-11-22T13:10:13;89765.34;;;11.63;79.20
76074;BME280;64776;42.636;24.358;2023-11-22T13:13:14;89767.31;;;11.57;78.70
76074;BME280;64776;42.636;24.358;2023-11-22T13:16:14;89779.69;;;11.65;77.60
76074;BME280;64776;42.636;24.358;2023-11-22T13:19:17;89769.97;;;11.57;77.08
76074;BME280;64776;42.636;24.358;2023-11-22T13:22:17;89776.53;;;11.50;77.09
76074;BME280;64776;42.636;24.358;2023-11-22T13:25:18;89767.81;;;11.50;77.32
76074;BME280;64776;42.636;24.358;2023-11-22T13:28:19;89780.91;;;11.59;77.15
76074;BME280;64776;42.636;24.358;2023-11-22T13:31:20;89783.38;;;11.68;77.13
76074;BME280;64776;42.636;24.358;2023-11-22T13:34:22;89794.78;;;11.68;77.56
76074;BME280;64776;42.636;24.358;2023-11-22T13:37:23;89795.00;;;11.65;77.76
76074;BME280;64776;42.636;24.358;2023-11-22T13:40:24;89800.81;;;11.46;78.68
76074;BME280;64776;42.636;24.358;2023-11-22T13:43:24;89800.81;;;11.52;79.20
76074;BME280;64776;42.636;24.358;2023-11-22T13:46:25;89797.41;;;11.40;79.12
76074;BME280;64776;42.636;24.358;2023-11-22T13:49:30;89791.81;;;11.44;79.47
76074;BME280;64776;42.636;24.358;2023-11-22T13:52:30;89793.28;;;11.51;80.46
76074;BME280;64776;42.636;24.358;2023-11-22T13:55:31;89796.91;;;11.25;83.19
76074;BME280;64776;42.636;24.358;2023-11-22T13:58:35;89811.69;;;11.15;84.06
76074;BME280;64776;42.636;24.358;2023-11-22T14:01:36;89813.31;;;10.85;85.23
76074;BME280;64776;42.636;24.358;2023-11-22T14:04:38;89832.19;;;10.76;86.01
76074;BME280;64776;42.636;24.358;2023-11-22T14:07:39;89836.28;;;10.72;86.32
76074;BME280;64776;42.636;24.358;2023-11-22T14:10:40;89826.59;;;10.69;85.81
76074;BME280;64776;42.636;24.358;2023-11-22T14:13:41;89827.03;;;10.61;86.87
76074;BME280;64776;42.636;24.358;2023-11-22T14:16:41;89838.44;;;10.62;86.51
76074;BME280;64776;42.636;24.358;2023-11-22T14:19:43;89834.31;;;10.61;85.85
76074;BME280;64776;42.636;24.358;2023-11-22T14:22:44;89835.50;;;10.54;85.60
76074;BME280;64776;42.636;24.358;2023-11-22T14:25:45;89836.94;;;10.50;86.96
76074;BME280;64776;42.636;24.358;2023-11-22T14:28:46;89827.91;;;10.36;86.63
76074;BME280;64776;42.636;24.358;2023-11-22T14:31:46;89827.59;;;10.29;88.01
76074;BME280;64776;42.636;24.358;2023-11-22T14:34:48;89839.16;;;10.15;88.02
76074;BME280;64776;42.636;24.358;2023-11-22T14:37:49;89835.66;;;10.03;88.55
76074;BME280;64776;42.636;24.358;2023-11-22T14:40:50;89833.97;;;10.06;88.70
76074;BME280;64776;42.636;24.358;2023-11-22T14:43:51;89835.69;;;10.09;88.70
76074;BME280;64776;42.636;24.358;2023-11-22T14:46:52;89839.56;;;10.08;88.74
76074;BME280;64776;42.636;24.358;2023-11-22T14:49:54;89844.84;;;10.02;89.00
76074;BME280;64776;42.636;24.358;2023-11-22T14:52:54;89856.94;;;9.98;87.81
76074;BME280;64776;42.636;24.358;2023-11-22T14:55:55;89853.72;;;9.88;88.40
76074;BME280;64776;42.636;24.358;2023-11-22T14:58:56;89856.59;;;9.84;88.35
76074;BME280;64776;42.636;24.358;2023-11-22T15:01:57;89864.59;;;9.84;88.94
76074;BME280;64776;42.636;24.358;2023-11-22T15:04:59;89869.94;;;9.84;89.08
76074;BME280;64776;42.636;24.358;2023-11-22T15:08:00;89875.47;;;9.81;89.00
76074;BME280;64776;42.636;24.358;2023-11-22T15:11:00;89875.22;;;9.53;90.82
76074;BME280;64776;42.636;24.358;2023-11-22T15:14:01;89888.78;;;9.50;91.06
76074;BME280;64776;42.636;24.358;2023-11-22T15:17:02;89887.75;;;9.22;92.14
76074;BME280;64776;42.636;24.358;2023-11-22T15:20:05;89889.28;;;9.28;91.57
76074;BME280;64776;42.636;24.358;2023-11-22T15:23:06;89896.59;;;9.33;90.34
76074;BME280;64776;42.636;24.358;2023-11-22T15:26:07;89896.19;;;9.20;91.24
76074;BME280;64776;42.636;24.358;2023-11-22T15:29:07;89904.06;;;9.09;91.66
76074;BME280;64776;42.636;24.358;2023-11-22T15:32:08;89912.66;;;9.19;91.30
76074;BME280;64776;42.636;24.358;2023-11-22T15:35:10;89917.09;;;9.27;91.58
76074;BME280;64776;42.636;24.358;2023-11-22T15:38:11;89926.22;;;9.21;90.63
76074;BME280;64776;42.636;24.358;2023-11-22T15:41:12;89932.06;;;9.25;90.32
76074;BME280;64776;42.636;24.358;2023-11-22T15:44:12;89942.72;;;9.25;90.94
76074;BME280;64776;42.636;24.358;2023-11-22T15:47:13;89945.31;;;9.19;90.59
76074;BME280;64776;42.636;24.358;2023-11-22T15:50:15;89956.91;;;9.16;91.01
76074;BME280;64776;42.636;24.358;2023-11-22T15:53:16;89961.28;;;9.19;90.75
76074;BME280;64776;42.636;24.358;2023-11-22T15:56:17;89967.22;;;9.29;90.95
76074;BME280;64776;42.636;24.358;2023-11-22T15:59:17;89969.88;;;9.29;90.21
76074;BME280;64776;42.636;24.358;2023-11-22T16:02:18;89971.22;;;9.19;91.10